Time;durP1;ratioP1;P1;durP2;ratioP2;P2;SDS_P1;SDS_P2;PMS_P1;PMS_P2;Temp;Humidity;BMP_temperature;BMP_pressure;BME280_temperature;BME280_humidity;BME280_pressure;Samples;Min_cycle;Max_cycle;Signal;HPM_P1;HPM_P2
2023/03/31 00:01:33;;;;;;;13.02;1.27;;;10.60;99.90;;;;;;5011467;28;20072;-74
2023/03/31 00:04:03;;;;;;;9.65;1.23;;;10.60;99.90;;;;;;5014226;28;20035;-74
2023/03/31 00:06:36;;;;;;;9.27;1.35;;;10.60;99.90;;;;;;5011406;28;20033;-74
2023/03/31 00:09:07;;;;;;;10.43;1.85;;;10.60;99.90;;;;;;5014293;28;20092;-74
2023/03/31 00:11:33;;;;;;;10.70;1.77;;;10.70;99.90;;;;;;5005833;28;20056;-74
2023/03/31 00:13:58;;;;;;;7.25;1.48;;;10.60;99.90;;;;;;5014657;28;20070;-74
2023/03/31 00:16:25;;;;;;;11.50;1.85;;;10.60;99.90;;;;;;5010126;28;20084;-74
2023/03/31 00:18:51;;;;;;;10.70;1.50;;;10.70;99.90;;;;;;5013599;28;20024;-74
2023/03/31 00:21:28;;;;;;;15.25;2.00;;;10.70;99.90;;;;;;5012885;28;20033;-75
2023/03/31 00:23:56;;;;;;;8.45;1.15;;;10.80;99.90;;;;;;5027273;28;20088;-75
2023/03/31 00:26:22;;;;;;;12.15;1.60;;;10.70;99.90;;;;;;5010443;28;20521;-74
2023/03/31 00:28:49;;;;;;;9.95;2.00;;;10.80;99.90;;;;;;5017734;28;20040;-74
2023/03/31 00:31:14;;;;;;;10.35;1.58;;;10.80;99.90;;;;;;5009481;28;20030;-74
2023/03/31 00:33:41;;;;;;;14.02;1.38;;;10.80;99.90;;;;;;5011655;28;20125;-74
2023/03/31 00:36:07;;;;;;;7.05;1.25;;;10.80;99.90;;;;;;5010908;28;20045;-74
2023/03/31 00:38:33;;;;;;;8.52;1.27;;;10.90;99.90;;;;;;5010506;28;20467;-74
2023/03/31 00:40:59;;;;;;;7.68;1.20;;;10.90;99.90;;;;;;5011119;28;20945;-74
2023/03/31 00:43:36;;;;;;;7.25;1.38;;;10.90;99.90;;;;;;5013376;28;20084;-74
2023/03/31 00:46:14;;;;;;;5.78;1.00;;;10.90;99.90;;;;;;5017948;28;20497;-74
2023/03/31 00:48:52;;;;;;;7.38;1.23;;;10.80;99.90;;;;;;5010189;28;20577;-74
2023/03/31 00:51:20;;;;;;;8.13;1.00;;;10.80;99.90;;;;;;5013011;28;20671;-74
2023/03/31 00:53:54;;;;;;;9.95;1.30;;;10.70;99.90;;;;;;5013364;28;20393;-74
2023/03/31 00:56:21;;;;;;;4.93;0.88;;;10.70;99.90;;;;;;5021339;28;20091;-75
2023/03/31 00:58:48;;;;;;;4.57;0.60;;;10.70;99.90;;;;;;5018853;28;20459;-74
2023/03/31 01:01:18;;;;;;;6.00;0.70;;;10.70;99.90;;;;;;5012264;28;20036;-74
2023/03/31 01:03:45;;;;;;;5.65;0.60;;;10.60;99.90;;;;;;5012155;28;20484;-73
2023/03/31 01:06:13;;;;;;;4.70;0.77;;;10.60;99.90;;;;;;5013470;28;20018;-74
2023/03/31 01:08:40;;;;;;;6.60;1.05;;;10.60;99.90;;;;;;5010274;28;20100;-73
2023/03/31 01:11:08;;;;;;;7.80;0.90;;;10.60;99.90;;;;;;5012049;28;20036;-74
2023/03/31 01:13:35;;;;;;;7.57;0.70;;;10.60;99.90;;;;;;5008965;28;20137;-73
2023/03/31 01:16:01;;;;;;;8.55;0.90;;;10.60;99.90;;;;;;5011716;28;20058;-74
2023/03/31 01:18:28;;;;;;;5.20;0.82;;;10.60;99.90;;;;;;5008242;28;20499;-74
2023/03/31 01:21:06;;;;;;;8.05;1.13;;;10.60;99.90;;;;;;5011576;28;20041;-74
2023/03/31 01:23:55;;;;;;;5.60;1.08;;;10.60;99.90;;;;;;5001528;28;20041;-74
2023/03/31 01:26:38;;;;;;;4.38;0.75;;;10.60;99.90;;;;;;4998517;28;20045;-73
2023/03/31 01:29:14;;;;;;;7.32;1.10;;;10.60;99.90;;;;;;5014520;28;20129;-74
2023/03/31 01:32:10;;;;;;;12.43;1.38;;;10.60;99.90;;;;;;5011200;28;20032;-74
2023/03/31 01:34:57;;;;;;;6.50;1.42;;;10.60;99.90;;;;;;5013276;28;20426;-74
2023/03/31 01:37:40;;;;;;;8.32;0.90;;;10.60;99.90;;;;;;5008990;28;20138;-74
2023/03/31 01:40:27;;;;;;;11.38;0.80;;;10.50;99.90;;;;;;5006810;28;20394;-74
2023/03/31 01:43:06;;;;;;;7.70;1.10;;;10.60;99.90;;;;;;5014008;28;20414;-73
2023/03/31 01:46:10;;;;;;;9.23;1.33;;;10.60;99.90;;;;;;5012866;28;20026;-74
2023/03/31 01:48:47;;;;;;;9.82;0.80;;;10.50;99.90;;;;;;5010406;28;20033;-73
2023/03/31 01:51:42;;;;;;;6.22;1.00;;;10.50;99.90;;;;;;5012287;28;20033;-73
2023/03/31 01:54:25;;;;;;;8.82;0.77;;;10.50;99.90;;;;;;5011185;28;20026;-74
2023/03/31 01:56:58;;;;;;;10.15;0.80;;;10.50;99.90;;;;;;5009170;28;20100;-74
2023/03/31 01:59:33;;;;;;;5.72;1.10;;;10.50;99.90;;;;;;5008369;28;20061;-73
2023/03/31 02:02:13;;;;;;;6.85;0.70;;;10.50;99.90;;;;;;5002139;28;20061;-73
2023/03/31 02:04:53;;;;;;;7.85;1.13;;;10.50;99.90;;;;;;5001847;28;20030;-74
2023/03/31 02:07:28;;;;;;;9.10;0.75;;;10.50;99.90;;;;;;5013639;28;20026;-74
2023/03/31 02:10:01;;;;;;;7.65;0.75;;;10.50;99.90;;;;;;5000640;28;20033;-73
2023/03/31 02:12:30;;;;;;;8.98;0.95;;;10.60;99.90;;;;;;5008874;28;20540;-73
2023/03/31 02:14:59;;;;;;;7.95;0.85;;;10.60;99.90;;;;;;5002877;28;20035;-73
2023/03/31 02:17:29;;;;;;;9.63;0.75;;;10.50;99.90;;;;;;5011824;28;20038;-74
2023/03/31 02:19:57;;;;;;;8.68;0.90;;;10.60;99.90;;;;;;5009638;28;20029;-73
2023/03/31 02:22:24;;;;;;;12.90;0.80;;;10.60;99.90;;;;;;5010659;28;20029;-73
2023/03/31 02:24:51;;;;;;;6.50;1.02;;;10.60;99.90;;;;;;5008983;28;20021;-74
2023/03/31 02:27:34;;;;;;;6.75;0.57;;;10.60;99.90;;;;;;5006419;28;20116;-74
2023/03/31 02:30:00;;;;;;;9.15;0.85;;;10.60;99.90;;;;;;5010152;28;20030;-73
2023/03/31 02:32:43;;;;;;;11.90;1.20;;;10.70;99.90;;;;;;5005665;28;20046;-74
2023/03/31 02:35:18;;;;;;;8.32;0.85;;;10.70;99.90;;;;;;5002736;28;20022;-74
2023/03/31 02:37:45;;;;;;;7.97;0.80;;;10.70;99.90;;;;;;5008908;28;20517;-74
2023/03/31 02:40:18;;;;;;;8.00;0.73;;;10.70;99.90;;;;;;5006549;28;20034;-74
2023/03/31 02:42:44;;;;;;;10.68;0.95;;;10.70;99.90;;;;;;5009848;28;20060;-74
2023/03/31 02:45:48;;;;;;;8.20;1.17;;;10.70;99.90;;;;;;4999882;28;20058;-74
2023/03/31 02:48:27;;;;;;;10.20;0.80;;;10.70;99.90;;;;;;5007462;28;20080;-74
2023/03/31 02:51:07;;;;;;;8.88;0.60;;;10.70;99.90;;;;;;5011802;28;20377;-73
2023/03/31 02:53:48;;;;;;;6.80;0.70;;;10.70;99.90;;;;;;5006497;28;20394;-73
2023/03/31 02:56:46;;;;;;;5.95;0.60;;;10.70;99.90;;;;;;5010408;28;20454;-74
2023/03/31 02:59:31;;;;;;;7.90;0.70;;;10.70;99.90;;;;;;5000886;28;20117;-74
2023/03/31 03:02:17;;;;;;;6.30;0.50;;;10.70;99.90;;;;;;5000526;28;20076;-74
2023/03/31 03:05:04;;;;;;;9.38;1.00;;;10.70;99.90;;;;;;5004396;28;20485;-74
2023/03/31 03:07:55;;;;;;;6.00;0.98;;;10.70;99.90;;;;;;5038622;28;20033;-74
2023/03/31 03:10:57;;;;;;;8.75;1.10;;;10.70;99.90;;;;;;4999050;28;20581;-74
2023/03/31 03:13:33;;;;;;;9.52;0.70;;;10.70;99.90;;;;;;5007446;28;20042;-74
2023/03/31 03:16:17;;;;;;;3.58;0.60;;;10.60;99.90;;;;;;5010579;28;20034;-73
2023/03/31 03:18:44;;;;;;;9.80;1.17;;;10.60;99.90;;;;;;5002544;28;20022;-73
2023/03/31 03:21:09;;;;;;;6.28;0.50;;;10.60;99.90;;;;;;5009443;28;20314;-74
2023/03/31 03:23:36;;;;;;;5.38;0.60;;;10.60;99.90;;;;;;5011022;28;20027;-73
2023/03/31 03:26:01;;;;;;;7.63;0.70;;;10.60;99.90;;;;;;5010286;28;20409;-73
2023/03/31 03:28:27;;;;;;;12.85;1.10;;;10.60;99.90;;;;;;5010146;28;20036;-73
2023/03/31 03:30:52;;;;;;;9.93;1.13;;;10.60;99.90;;;;;;5006209;28;20029;-74
2023/03/31 03:33:18;;;;;;;12.00;0.88;;;10.60;99.90;;;;;;5004806;28;20061;-74
2023/03/31 03:35:43;;;;;;;9.70;0.95;;;10.60;99.90;;;;;;5007728;28;20029;-74
2023/03/31 03:38:09;;;;;;;12.27;1.73;;;10.60;99.90;;;;;;5008452;28;20038;-74
2023/03/31 03:40:35;;;;;;;13.35;1.63;;;10.60;99.90;;;;;;5009217;28;20053;-74
2023/03/31 03:43:00;;;;;;;14.02;1.30;;;10.60;99.90;;;;;;5002863;28;20081;-74
2023/03/31 03:45:26;;;;;;;10.43;1.40;;;10.60;99.90;;;;;;5007764;28;20026;-74
2023/03/31 03:47:51;;;;;;;16.35;1.70;;;10.60;99.90;;;;;;5014664;28;20485;-74
2023/03/31 03:50:17;;;;;;;13.45;1.40;;;10.60;99.90;;;;;;5010234;28;20415;-74
2023/03/31 03:52:43;;;;;;;9.88;1.20;;;10.60;99.90;;;;;;5008221;28;20750;-74
2023/03/31 03:55:08;;;;;;;9.82;1.02;;;10.60;99.90;;;;;;5008330;28;20038;-74
2023/03/31 03:57:34;;;;;;;10.35;0.80;;;10.50;99.90;;;;;;5010768;28;20402;-74
2023/03/31 04:00:00;;;;;;;13.48;1.08;;;10.50;99.90;;;;;;5010839;28;20482;-73
2023/03/31 04:02:27;;;;;;;18.15;1.75;;;10.50;99.90;;;;;;5009202;28;20037;-74
2023/03/31 04:04:52;;;;;;;11.57;1.13;;;10.50;99.90;;;;;;5011554;28;20409;-73
2023/03/31 04:07:18;;;;;;;15.30;1.25;;;10.50;99.90;;;;;;5009146;28;20033;-74
2023/03/31 04:09:43;;;;;;;11.27;1.10;;;10.50;99.90;;;;;;5010739;28;20037;-74
2023/03/31 04:12:09;;;;;;;14.30;1.50;;;10.50;99.90;;;;;;5011560;28;20034;-74
2023/03/31 04:14:34;;;;;;;11.65;1.35;;;10.50;99.90;;;;;;5007818;28;20054;-74
2023/03/31 04:17:01;;;;;;;21.02;2.13;;;10.50;99.90;;;;;;5024524;28;20042;-74
2023/03/31 04:19:26;;;;;;;14.25;0.93;;;10.50;99.90;;;;;;5001198;28;20078;-74
2023/03/31 04:22:03;;;;;;;19.52;2.03;;;10.50;99.90;;;;;;5002795;28;20490;-74
2023/03/31 04:24:32;;;;;;;14.35;1.20;;;10.50;99.90;;;;;;5009611;28;20030;-73
2023/03/31 04:26:58;;;;;;;13.95;1.50;;;10.40;99.90;;;;;;5006891;28;20049;-74
2023/03/31 04:29:25;;;;;;;12.95;1.00;;;10.50;99.90;;;;;;5001588;28;20026;-73
2023/03/31 04:31:52;;;;;;;15.80;1.73;;;10.40;99.90;;;;;;5005294;28;20026;-73
2023/03/31 04:34:21;;;;;;;15.27;1.90;;;10.50;99.90;;;;;;5007033;28;20033;-73
2023/03/31 04:36:46;;;;;;;8.65;0.77;;;10.40;99.90;;;;;;5003864;28;20029;-73
2023/03/31 04:39:17;;;;;;;11.30;1.00;;;10.40;99.90;;;;;;5005674;28;20541;-74
2023/03/31 04:41:43;;;;;;;7.47;0.60;;;10.50;99.90;;;;;;5002115;28;20200;-74
2023/03/31 04:44:09;;;;;;;11.38;0.80;;;10.40;99.90;;;;;;5010833;28;20072;-73
2023/03/31 04:46:34;;;;;;;11.45;1.20;;;10.40;99.90;;;;;;5008836;28;20065;-73
2023/03/31 04:49:01;;;;;;;9.57;0.93;;;10.40;99.90;;;;;;5006520;28;20030;-74
2023/03/31 04:51:27;;;;;;;10.35;0.82;;;10.40;99.90;;;;;;5014129;28;20388;-74
2023/03/31 04:53:53;;;;;;;8.60;0.70;;;10.40;99.90;;;;;;5009077;28;20018;-73
2023/03/31 04:56:18;;;;;;;12.80;2.30;;;10.40;99.90;;;;;;5003982;28;20037;-73
2023/03/31 04:58:44;;;;;;;8.77;0.82;;;10.40;99.90;;;;;;5013929;28;20018;-74
2023/03/31 05:01:12;;;;;;;7.80;1.00;;;10.30;99.90;;;;;;5005520;28;20060;-74
2023/03/31 05:03:38;;;;;;;9.10;0.95;;;10.30;99.90;;;;;;5013133;28;20041;-73
2023/03/31 05:06:04;;;;;;;8.55;0.80;;;10.30;99.90;;;;;;5013502;28;20445;-73
2023/03/31 05:08:30;;;;;;;9.48;0.93;;;10.30;99.90;;;;;;5003531;28;20539;-73
2023/03/31 05:10:55;;;;;;;5.07;0.50;;;10.30;99.90;;;;;;5011369;28;20022;-73
2023/03/31 05:13:21;;;;;;;9.13;1.02;;;10.30;99.90;;;;;;5012841;28;20084;-73
2023/03/31 05:15:49;;;;;;;8.43;0.77;;;10.30;99.90;;;;;;5011552;28;20438;-73
2023/03/31 05:18:15;;;;;;;8.13;0.98;;;10.30;99.90;;;;;;5011052;28;20030;-73
2023/03/31 05:20:41;;;;;;;11.90;1.05;;;10.30;99.90;;;;;;5013545;28;20494;-73
2023/03/31 05:23:06;;;;;;;13.30;1.88;;;10.20;99.90;;;;;;5029714;28;20473;-73
2023/03/31 05:25:32;;;;;;;10.70;1.23;;;10.30;99.90;;;;;;5009450;28;20026;-73
2023/03/31 05:27:58;;;;;;;9.15;0.80;;;10.30;99.90;;;;;;5002084;28;20034;-73
2023/03/31 05:30:25;;;;;;;9.82;0.90;;;10.20;99.90;;;;;;5011708;28;20030;-74
2023/03/31 05:32:51;;;;;;;11.98;0.95;;;10.20;99.90;;;;;;5003221;28;20030;-72
2023/03/31 05:35:17;;;;;;;9.13;0.90;;;10.30;99.90;;;;;;5012828;28;20095;-72
2023/03/31 05:37:42;;;;;;;14.05;2.05;;;10.30;99.90;;;;;;5009839;28;20046;-72
2023/03/31 05:40:08;;;;;;;7.10;1.00;;;10.30;99.90;;;;;;5007501;28;20398;-72
2023/03/31 05:42:35;;;;;;;8.68;1.00;;;10.30;99.90;;;;;;5006668;28;20033;-73
2023/03/31 05:45:00;;;;;;;9.98;1.30;;;10.30;99.90;;;;;;4995974;28;20022;-73
2023/03/31 05:47:26;;;;;;;9.88;1.25;;;10.30;99.90;;;;;;5004888;28;20021;-74
2023/03/31 05:49:52;;;;;;;8.38;1.00;;;10.20;99.90;;;;;;5000208;28;20037;-73
2023/03/31 05:52:18;;;;;;;10.90;0.82;;;10.20;99.90;;;;;;5004897;28;20105;-74
2023/03/31 05:54:44;;;;;;;14.38;1.65;;;10.30;99.90;;;;;;5012874;28;20022;-73
2023/03/31 05:57:09;;;;;;;8.52;0.77;;;10.30;99.90;;;;;;5010557;28;20045;-73
2023/03/31 05:59:35;;;;;;;9.75;1.45;;;10.30;99.90;;;;;;4996979;28;20034;-74
2023/03/31 06:02:04;;;;;;;8.50;1.20;;;10.30;99.90;;;;;;5003948;28;20027;-73
2023/03/31 06:04:33;;;;;;;4.60;0.70;;;10.30;99.90;;;;;;4998855;28;20040;-72
2023/03/31 06:06:59;;;;;;;6.93;0.60;;;10.30;99.90;;;;;;5012938;28;20421;-73
2023/03/31 06:09:25;;;;;;;10.05;0.75;;;10.40;99.90;;;;;;5006677;28;20067;-73
2023/03/31 06:11:51;;;;;;;11.48;0.90;;;10.50;99.90;;;;;;5006297;28;20521;-72
2023/03/31 06:14:17;;;;;;;6.50;0.50;;;10.50;99.90;;;;;;5000032;28;20046;-74
2023/03/31 06:16:42;;;;;;;6.05;0.50;;;10.60;99.90;;;;;;5011682;28;20038;-75
2023/03/31 06:19:08;;;;;;;5.20;0.60;;;10.60;99.90;;;;;;5009144;28;20034;-74
2023/03/31 06:21:33;;;;;;;8.32;0.70;;;10.70;99.90;;;;;;5002726;28;20062;-73
2023/03/31 06:24:00;;;;;;;5.05;0.45;;;10.70;99.90;;;;;;5001984;28;20033;-73
2023/03/31 06:26:26;;;;;;;4.72;0.30;;;10.70;99.90;;;;;;5000559;28;20034;-73
2023/03/31 06:28:52;;;;;;;3.40;0.43;;;10.80;99.90;;;;;;5007768;28;20510;-74
2023/03/31 06:31:20;;;;;;;3.83;0.40;;;10.80;99.90;;;;;;5007268;28;20087;-73
2023/03/31 06:33:45;;;;;;;5.35;0.40;;;10.80;99.90;;;;;;5008070;28;20030;-73
2023/03/31 06:36:13;;;;;;;8.63;0.70;;;10.80;99.90;;;;;;5007361;28;20037;-74
2023/03/31 06:38:39;;;;;;;7.63;0.40;;;10.80;99.90;;;;;;5008533;28;20092;-72
2023/03/31 06:41:06;;;;;;;3.78;0.50;;;10.80;99.90;;;;;;5008834;28;20553;-73
2023/03/31 06:43:31;;;;;;;4.50;0.40;;;10.80;99.90;;;;;;5007200;28;20120;-73
2023/03/31 06:45:57;;;;;;;8.23;0.55;;;10.80;99.90;;;;;;5012284;28;20061;-73
2023/03/31 06:48:24;;;;;;;4.07;0.50;;;10.80;99.90;;;;;;5009704;28;20037;-73
2023/03/31 06:50:51;;;;;;;8.73;0.63;;;10.70;99.90;;;;;;5002079;28;20100;-73
2023/03/31 06:53:17;;;;;;;5.32;0.50;;;10.70;99.90;;;;;;5030276;28;20057;-73
2023/03/31 06:55:42;;;;;;;3.75;0.50;;;10.60;99.90;;;;;;5006204;28;20084;-73
2023/03/31 06:58:08;;;;;;;5.82;0.88;;;10.60;99.90;;;;;;5004358;28;20038;-73
2023/03/31 07:00:34;;;;;;;4.65;0.40;;;10.50;99.90;;;;;;5001862;28;20025;-73
2023/03/31 07:03:00;;;;;;;4.25;0.50;;;10.50;99.90;;;;;;5011956;28;20398;-74
2023/03/31 07:05:27;;;;;;;2.17;0.40;;;10.50;99.90;;;;;;5003632;28;20356;-74
2023/03/31 07:07:54;;;;;;;6.15;0.70;;;10.50;99.90;;;;;;5010752;28;20018;-74
2023/03/31 07:10:20;;;;;;;6.20;0.75;;;10.50;99.90;;;;;;5011262;28;20026;-74
2023/03/31 07:12:45;;;;;;;4.70;0.80;;;10.40;99.90;;;;;;5011885;28;20033;-74
2023/03/31 07:15:11;;;;;;;7.82;0.70;;;10.40;99.90;;;;;;5011181;28;20049;-74
2023/03/31 07:17:40;;;;;;;7.95;0.50;;;10.40;99.90;;;;;;5009733;28;20084;-74
2023/03/31 07:20:16;;;;;;;3.40;0.50;;;10.40;99.90;;;;;;5004632;28;20057;-74
2023/03/31 07:22:43;;;;;;;7.65;0.60;;;10.40;99.90;;;;;;5009059;28;20076;-74
2023/03/31 07:25:09;;;;;;;3.90;0.50;;;10.40;99.90;;;;;;5011098;28;20024;-72
2023/03/31 07:27:36;;;;;;;5.65;0.80;;;10.40;99.90;;;;;;5010283;28;20101;-73
2023/03/31 07:30:06;;;;;;;4.90;0.40;;;10.40;99.90;;;;;;5011364;28;20025;-73
2023/03/31 07:32:32;;;;;;;3.25;0.40;;;10.40;99.90;;;;;;5011261;28;20033;-73
2023/03/31 07:34:57;;;;;;;4.18;0.50;;;10.40;99.90;;;;;;5011668;28;20030;-73
2023/03/31 07:37:23;;;;;;;3.58;0.40;;;10.40;99.90;;;;;;5010824;28;20052;-73
2023/03/31 07:39:49;;;;;;;4.15;0.50;;;10.40;99.90;;;;;;5002645;28;20061;-72
2023/03/31 07:42:14;;;;;;;2.83;0.50;;;10.40;99.90;;;;;;5008326;28;20105;-73
2023/03/31 07:44:40;;;;;;;4.57;0.50;;;10.50;99.90;;;;;;5010122;28;20546;-73
2023/03/31 07:47:05;;;;;;;4.30;0.50;;;10.60;99.90;;;;;;5011562;28;20140;-74
2023/03/31 07:49:33;;;;;;;6.05;0.60;;;10.60;99.90;;;;;;5000963;28;20083;-73
2023/03/31 07:51:58;;;;;;;3.97;0.60;;;10.80;99.90;;;;;;5011403;28;20026;-74
2023/03/31 07:54:24;;;;;;;3.25;0.63;;;10.90;99.90;;;;;;5011239;28;20036;-73
2023/03/31 07:56:50;;;;;;;4.88;0.82;;;11.00;99.90;;;;;;5011354;28;20029;-73
2023/03/31 07:59:16;;;;;;;6.80;0.60;;;11.10;99.90;;;;;;5008723;28;20084;-74
2023/03/31 08:01:41;;;;;;;3.58;0.60;;;11.30;99.90;;;;;;5007555;28;20040;-73
2023/03/31 08:04:10;;;;;;;6.03;0.65;;;11.30;99.90;;;;;;5007148;28;20441;-73
2023/03/31 08:06:35;;;;;;;5.38;0.65;;;11.40;99.90;;;;;;5011291;28;20449;-73
2023/03/31 08:09:03;;;;;;;6.57;0.70;;;11.50;99.90;;;;;;5010056;28;20057;-73
2023/03/31 08:11:29;;;;;;;5.72;0.60;;;11.50;99.90;;;;;;5010700;28;20041;-73
2023/03/31 08:13:55;;;;;;;3.53;0.77;;;11.60;99.90;;;;;;5010689;28;20054;-73
2023/03/31 08:16:21;;;;;;;5.18;0.85;;;11.60;99.90;;;;;;5011061;28;20117;-73
2023/03/31 08:18:46;;;;;;;7.72;1.20;;;11.70;99.90;;;;;;5005406;28;20398;-73
2023/03/31 08:21:12;;;;;;;6.45;0.90;;;11.80;99.90;;;;;;5040392;28;20479;-73
2023/03/31 08:23:37;;;;;;;12.02;1.65;;;11.90;99.90;;;;;;5014906;28;20106;-73
2023/03/31 08:26:11;;;;;;;7.43;1.00;;;12.00;99.90;;;;;;5015337;28;20049;-74
2023/03/31 08:28:37;;;;;;;7.68;1.00;;;12.10;99.90;;;;;;5006546;28;20483;-73
2023/03/31 08:31:05;;;;;;;9.38;1.23;;;12.20;99.90;;;;;;5014848;28;20129;-73
2023/03/31 08:33:31;;;;;;;12.73;1.42;;;12.30;99.90;;;;;;5014346;28;20033;-73
2023/03/31 08:36:01;;;;;;;6.65;1.10;;;12.40;99.90;;;;;;5010107;28;20117;-74
2023/03/31 08:38:26;;;;;;;10.70;1.15;;;12.50;99.90;;;;;;5006631;28;20035;-74
2023/03/31 08:40:58;;;;;;;9.88;1.23;;;12.50;99.90;;;;;;5004393;28;20043;-74
2023/03/31 08:43:29;;;;;;;13.38;1.35;;;12.60;99.90;;;;;;5014734;28;20030;-73
2023/03/31 08:45:55;;;;;;;11.30;1.30;;;12.60;99.90;;;;;;5014580;28;20367;-74
2023/03/31 08:48:25;;;;;;;12.27;1.30;;;12.60;99.90;;;;;;5008880;28;20026;-73
2023/03/31 08:51:15;;;;;;;10.68;1.10;;;12.60;99.90;;;;;;5009567;28;20026;-73
2023/03/31 08:53:54;;;;;;;11.15;1.05;;;12.70;99.90;;;;;;5014286;28;20014;-74
2023/03/31 08:56:21;;;;;;;12.00;1.27;;;12.70;99.90;;;;;;5014467;28;20114;-74
2023/03/31 08:58:51;;;;;;;15.02;1.60;;;12.70;99.90;;;;;;5013390;28;20076;-74
2023/03/31 09:01:33;;;;;;;13.93;1.20;;;12.70;99.90;;;;;;5003999;28;20406;-74
2023/03/31 09:04:30;;;;;;;11.20;0.95;;;12.70;99.90;;;;;;5014378;28;20072;-73
2023/03/31 09:07:08;;;;;;;14.27;1.38;;;12.70;99.90;;;;;;5046438;28;20030;-74
2023/03/31 09:10:08;;;;;;;12.82;1.63;;;12.70;99.90;;;;;;5014481;28;20030;-74
2023/03/31 09:12:58;;;;;;;11.90;1.50;;;12.70;99.90;;;;;;5012065;28;20080;-73
2023/03/31 09:15:38;;;;;;;9.32;1.30;;;12.80;99.90;;;;;;5013914;28;20041;-74
2023/03/31 09:18:16;;;;;;;17.48;1.50;;;12.90;99.90;;;;;;5014226;28;20125;-73
2023/03/31 09:20:47;;;;;;;11.93;1.65;;;12.90;99.90;;;;;;5004228;28;20486;-74
2023/03/31 09:23:32;;;;;;;14.10;1.20;;;13.00;99.90;;;;;;5005487;28;20029;-74
2023/03/31 09:26:00;;;;;;;12.48;1.65;;;13.00;99.90;;;;;;5003640;28;20104;-73
2023/03/31 09:28:37;;;;;;;11.98;1.73;;;13.20;99.90;;;;;;5006857;28;20026;-73
2023/03/31 09:31:12;;;;;;;12.10;1.52;;;13.30;99.90;;;;;;5014813;28;20022;-73
2023/03/31 09:33:43;;;;;;;20.25;2.08;;;13.30;99.90;;;;;;5021826;28;20065;-73
2023/03/31 09:36:15;;;;;;;11.07;1.50;;;13.40;99.90;;;;;;5004315;28;20534;-73
2023/03/31 09:38:42;;;;;;;16.23;1.83;;;13.50;99.90;;;;;;5006824;28;20019;-73
2023/03/31 09:41:08;;;;;;;17.05;2.15;;;13.50;99.90;;;;;;5012938;28;20483;-73
2023/03/31 09:43:34;;;;;;;13.30;1.58;;;13.60;99.90;;;;;;5013210;28;20049;-74
2023/03/31 09:46:00;;;;;;;16.85;1.40;;;13.70;99.90;;;;;;5013727;28;20179;-73
2023/03/31 09:48:29;;;;;;;10.70;1.10;;;13.80;99.90;;;;;;5003666;28;20026;-74
2023/03/31 09:51:01;;;;;;;15.73;1.38;;;13.90;99.90;;;;;;5022647;28;20017;-74
2023/03/31 09:54:20;;;;;;;10.30;1.40;;;13.90;99.90;;;;;;5023856;28;20037;-74
2023/03/31 09:56:51;;;;;;;13.98;1.23;;;13.90;99.90;;;;;;5011642;28;20296;-74
2023/03/31 09:59:32;;;;;;;11.52;1.95;;;13.80;99.90;;;;;;5008523;28;20031;-74
2023/03/31 10:02:02;;;;;;;15.35;1.63;;;13.90;99.90;;;;;;5004721;28;20585;-74
2023/03/31 10:04:32;;;;;;;15.52;2.00;;;13.80;99.90;;;;;;5012035;28;20022;-74
2023/03/31 10:07:02;;;;;;;14.75;1.15;;;13.80;99.90;;;;;;5012618;28;20041;-74
2023/03/31 10:09:33;;;;;;;13.15;2.05;;;13.70;99.90;;;;;;5009339;28;20018;-74
2023/03/31 10:12:08;;;;;;;15.02;1.75;;;13.70;99.90;;;;;;5013180;28;20029;-74
2023/03/31 10:14:44;;;;;;;9.52;1.02;;;13.70;99.90;;;;;;5018021;28;20566;-74
2023/03/31 10:17:15;;;;;;;10.57;1.33;;;13.90;99.90;;;;;;5010699;28;20038;-74
2023/03/31 10:19:50;;;;;;;11.15;1.58;;;14.00;99.90;;;;;;5008590;28;20026;-74
2023/03/31 10:22:30;;;;;;;11.30;1.02;;;14.00;99.90;;;;;;5012129;28;20104;-74
2023/03/31 10:25:19;;;;;;;10.85;1.23;;;14.00;99.90;;;;;;4998864;28;20023;-75
2023/03/31 10:27:48;;;;;;;8.57;1.77;;;14.10;99.90;;;;;;5010849;28;20091;-74
2023/03/31 10:30:21;;;;;;;19.08;2.42;;;14.10;99.90;;;;;;5003430;28;20037;-74
2023/03/31 10:32:47;;;;;;;13.40;1.67;;;14.20;99.90;;;;;;5007435;28;20018;-74
2023/03/31 10:35:28;;;;;;;9.32;1.15;;;14.30;99.90;;;;;;5005336;28;20033;-75
2023/03/31 10:37:57;;;;;;;9.95;1.63;;;14.40;99.90;;;;;;5003510;28;20070;-74
2023/03/31 10:40:26;;;;;;;10.07;1.13;;;14.50;99.90;;;;;;4995648;28;20155;-74
2023/03/31 10:43:14;;;;;;;11.20;1.38;;;14.70;99.90;;;;;;5002868;28;20030;-74
2023/03/31 10:45:53;;;;;;;9.23;0.98;;;14.80;99.90;;;;;;4998911;28;20033;-74
2023/03/31 10:48:31;;;;;;;10.13;1.00;;;14.80;99.90;;;;;;5003993;28;20026;-74
2023/03/31 10:51:09;;;;;;;10.02;0.90;;;14.90;99.90;;;;;;5004007;28;20116;-74
2023/03/31 10:53:51;;;;;;;10.05;1.02;;;14.90;99.90;;;;;;5010351;28;20384;-75
2023/03/31 10:56:20;;;;;;;8.73;1.20;;;14.90;99.90;;;;;;5002367;28;20109;-74
2023/03/31 10:58:59;;;;;;;8.80;0.70;;;14.90;99.90;;;;;;5010077;28;20030;-74
2023/03/31 11:01:45;;;;;;;9.07;1.10;;;14.90;99.90;;;;;;5003329;28;20030;-75
2023/03/31 11:04:48;;;;;;;7.07;0.93;;;14.80;99.90;;;;;;5008171;28;20435;-75
2023/03/31 11:07:21;;;;;;;8.05;1.13;;;14.70;99.90;;;;;;5011748;28;20044;-74
2023/03/31 11:10:13;;;;;;;11.80;1.00;;;14.60;99.90;;;;;;5003431;28;20453;-74
2023/03/31 11:13:03;;;;;;;10.38;1.13;;;14.60;99.90;;;;;;5012389;28;20474;-74
2023/03/31 11:15:35;;;;;;;8.02;1.95;;;14.60;99.90;;;;;;5011799;28;20044;-74
2023/03/31 11:18:16;;;;;;;8.85;0.90;;;14.70;99.90;;;;;;5012218;28;20068;-74
2023/03/31 11:21:16;;;;;;;10.25;0.90;;;14.70;99.90;;;;;;5004478;28;20471;-74
2023/03/31 11:23:42;;;;;;;10.35;0.75;;;14.60;99.90;;;;;;5008265;28;20025;-74
2023/03/31 11:26:46;;;;;;;12.10;1.13;;;14.60;99.90;;;;;;5011764;28;20037;-74
2023/03/31 11:29:22;;;;;;;10.30;1.08;;;14.70;99.90;;;;;;5011490;28;20474;-74
2023/03/31 11:32:21;;;;;;;7.40;0.80;;;14.80;99.90;;;;;;5010656;28;20014;-74
2023/03/31 11:34:56;;;;;;;7.60;0.90;;;14.90;99.90;;;;;;5012699;28;20034;-74
2023/03/31 11:37:52;;;;;;;9.95;1.00;;;15.00;99.90;;;;;;5043435;28;20088;-76
2023/03/31 11:40:39;;;;;;;10.48;1.58;;;15.10;99.90;;;;;;5011694;28;20109;-74
2023/03/31 11:43:26;;;;;;;10.90;1.25;;;15.00;99.90;;;;;;5010917;28;20018;-74
2023/03/31 11:46:05;;;;;;;8.50;0.90;;;14.90;99.90;;;;;;5011916;28;20121;-74
2023/03/31 11:49:00;;;;;;;9.38;1.35;;;14.80;99.90;;;;;;5006210;28;20137;-74
2023/03/31 11:51:46;;;;;;;10.55;0.77;;;14.70;99.90;;;;;;5015167;28;20026;-74
2023/03/31 11:54:23;;;;;;;13.35;1.08;;;14.60;99.90;;;;;;5014147;28;20022;-74
2023/03/31 11:56:50;;;;;;;8.73;0.70;;;14.60;99.90;;;;;;5024984;28;20037;-74
2023/03/31 11:59:19;;;;;;;10.73;1.45;;;14.50;99.90;;;;;;5000793;28;20101;-74
2023/03/31 12:01:53;;;;;;;10.05;0.90;;;14.50;99.90;;;;;;5011169;28;20109;-74
2023/03/31 12:04:24;;;;;;;8.30;0.90;;;14.60;99.90;;;;;;5028122;28;20084;-74
2023/03/31 12:06:52;;;;;;;10.15;0.90;;;14.70;99.90;;;;;;5031399;28;20022;-74
2023/03/31 12:09:50;;;;;;;8.93;1.38;;;14.80;99.90;;;;;;5010451;28;20030;-74
2023/03/31 12:12:24;;;;;;;10.85;1.20;;;14.80;99.90;;;;;;5029033;28;20385;-74
2023/03/31 12:15:15;;;;;;;8.45;0.80;;;14.80;99.90;;;;;;5024307;28;20843;-74
2023/03/31 12:17:46;;;;;;;10.00;0.80;;;14.80;99.90;;;;;;5012399;28;20044;-74
2023/03/31 12:20:25;;;;;;;8.25;1.33;;;14.60;99.90;;;;;;5008655;28;20080;-75
2023/03/31 12:22:52;;;;;;;10.35;1.05;;;14.50;99.90;;;;;;5011349;28;20045;-74
2023/03/31 12:25:25;;;;;;;11.73;1.00;;;14.40;99.90;;;;;;5011224;28;20021;-74
2023/03/31 12:27:53;;;;;;;6.18;0.80;;;14.30;99.90;;;;;;5011572;28;20029;-74
2023/03/31 12:30:37;;;;;;;7.97;0.70;;;14.30;99.90;;;;;;5010560;28;20018;-74
2023/03/31 12:33:28;;;;;;;8.00;0.85;;;14.30;99.90;;;;;;5010807;28;20034;-74
2023/03/31 12:36:18;;;;;;;5.47;0.82;;;14.30;99.90;;;;;;5011437;28;20076;-74
2023/03/31 12:39:00;;;;;;;6.32;0.50;;;14.30;99.90;;;;;;5009884;28;20489;-74
2023/03/31 12:41:26;;;;;;;10.85;1.20;;;14.20;99.90;;;;;;5010152;28;20041;-74
2023/03/31 12:44:42;;;;;;;8.70;0.68;;;14.20;99.90;;;;;;5011045;28;20022;-74
2023/03/31 12:47:18;;;;;;;7.80;0.80;;;14.10;99.90;;;;;;5009909;28;20041;-74
2023/03/31 12:49:52;;;;;;;6.45;0.60;;;14.10;99.90;;;;;;5011002;28;20037;-74
2023/03/31 12:52:46;;;;;;;8.13;1.30;;;14.20;99.90;;;;;;4994111;28;20510;-74
2023/03/31 12:55:39;;;;;;;5.72;0.50;;;14.30;99.90;;;;;;4991251;28;20034;-74
2023/03/31 12:58:27;;;;;;;4.22;0.55;;;14.20;99.90;;;;;;5008851;28;20418;-74
2023/03/31 13:01:10;;;;;;;8.52;0.75;;;14.10;99.90;;;;;;5004904;28;20030;-74
2023/03/31 13:03:39;;;;;;;;;;;14.20;99.90;;;;;;5013397;28;20030;-74
2023/03/31 13:06:05;;;;;;;7.47;0.60;;;14.20;99.90;;;;;;5012306;28;20308;-75
2023/03/31 13:08:52;;;;;;;6.97;0.47;;;14.40;99.90;;;;;;5004492;28;20030;-74
2023/03/31 13:11:21;;;;;;;4.95;0.50;;;14.30;99.90;;;;;;5007550;28;20087;-74